Main page
METAR-TAF:

METAR-TAF

Airports :

Épinal – Mirecourt Airport

Épinal, France

latitude: 48-19-31N, longitude: 6-04-00E, elevation: 330 m

Current weather observation

The report was made 38 minutes ago, at 23:30 UTC
Wind 7 kt from the West/Northwest
Temperature 3°C
Humidity 93%
Pressure 1005 hPa
Visibility: 9000 m
Overcast at a height of 1100 ft
light rain

METAR: LFSG 172330Z AUTO 29007KT 9000 -RA OVC011 03/02 Q1005

Time: 01:08 (00:08 UTC)


TAF: missing

Weather observations and forecasts of more than 4000 airports (METAR and TAF reports).

The available stations are represented by yellow and red dots on the map.

Hover mouse over dot to see the name of the station.

Then click to see weather observations and forecasts.

To change the map : click on the green buttons with a black cross to zoom in, on the green button with a dash to zoom out, or on the green arrows for adjacent maps.


METAR-TAF: